Metar Aviation Weather Data EGGD Bristol International

8°C Temp
7°C Dewpoint
93% Humidity
Temperature
16 KM/H
10 MPH
9 KTS
40°
North East

Wind Speed
Clear
Conditions
Pressure 1026 (hPa) - 30.3 (in)
Visibility 6.2 (mi) - 10.0 (km)

Current Conditions
EGGD
Bristol International 6 km (3.2 mi)
Metar :EGGD 180450Z AUTO 04009KT 9999 NCD 08/07 Q1026
Thu 18th October 05:50 am

Airport
  Metar Aviation API Data Provided by https://www.checkwx.com/ PHP scripts by weather34.com ©2018